createdAt,value
2023-03-05T00:02:05.933Z,7.97
2023-03-05T00:07:12.333Z,7.50
2023-03-05T00:12:15.020Z,7.40
2023-03-05T00:17:17.812Z,7.80
2023-03-05T00:22:20.380Z,8.30
2023-03-05T00:27:22.827Z,8.50
2023-03-05T00:32:25.629Z,7.70
2023-03-05T00:37:28.180Z,8.57
2023-03-05T00:42:30.959Z,7.57
2023-03-05T00:47:34.239Z,7.13
2023-03-05T00:52:36.711Z,7.30
2023-03-05T00:57:39.209Z,6.90
2023-03-05T01:02:42.103Z,6.27
2023-03-05T01:07:44.590Z,7.60
2023-03-05T01:12:47.099Z,7.60
2023-03-05T01:17:49.557Z,7.00
2023-03-05T01:22:52.931Z,6.70
2023-03-05T01:27:55.599Z,6.80
2023-03-05T01:32:58.328Z,6.97
2023-03-05T01:38:00.904Z,6.43
2023-03-05T01:43:27.073Z,7.27
2023-03-05T01:48:29.867Z,7.80
2023-03-05T01:53:32.949Z,7.20
2023-03-05T01:58:35.474Z,7.10
2023-03-05T02:03:38.596Z,6.93
2023-03-05T02:08:41.227Z,6.77
2023-03-05T02:13:43.754Z,7.13
2023-03-05T02:18:46.389Z,6.37
2023-03-05T02:23:48.981Z,7.03
2023-03-05T02:28:57.231Z,6.43
2023-03-05T02:33:59.959Z,5.70
2023-03-05T02:39:04.038Z,6.27
2023-03-05T02:44:06.614Z,5.97
2023-03-05T02:49:09.234Z,5.47
2023-03-05T02:54:12.122Z,5.50
2023-03-05T02:59:14.817Z,5.90
2023-03-05T03:04:17.389Z,5.87
2023-03-05T03:09:20.069Z,5.77
2023-03-05T03:14:22.854Z,5.83
2023-03-05T03:19:25.532Z,5.63
2023-03-05T03:24:29.692Z,5.77
2023-03-05T03:29:32.796Z,5.83
2023-03-05T03:34:35.443Z,5.80
2023-03-05T03:39:38.077Z,5.47
2023-03-05T03:44:40.699Z,5.50
2023-03-05T03:49:43.193Z,5.53
2023-03-05T03:54:45.587Z,5.90
2023-03-05T03:59:50.338Z,5.77
2023-03-05T04:04:53.298Z,5.53
2023-03-05T04:09:55.833Z,5.43
2023-03-05T04:14:58.276Z,5.50
2023-03-05T04:20:00.989Z,5.90
2023-03-05T04:25:06.632Z,5.00
2023-03-05T04:30:11.672Z,5.10
2023-03-05T04:35:14.122Z,5.80
2023-03-05T04:40:17.903Z,5.67
2023-03-05T04:45:20.510Z,5.80
2023-03-05T04:50:23.010Z,5.80
2023-03-05T04:55:25.575Z,6.03
2023-03-05T05:00:27.980Z,5.70
2023-03-05T05:05:30.579Z,4.80
2023-03-05T05:10:33.211Z,5.07
2023-03-05T05:15:35.667Z,6.23
2023-03-05T05:20:39.289Z,5.97
2023-03-05T05:25:43.245Z,6.50
2023-03-05T05:30:45.671Z,6.40
2023-03-05T05:35:48.275Z,6.03
2023-03-05T05:40:50.668Z,6.73
2023-03-05T05:45:53.239Z,6.87
2023-03-05T05:50:55.949Z,6.30
2023-03-05T05:55:58.539Z,6.30
2023-03-05T06:01:01.884Z,6.83
2023-03-05T06:06:08.160Z,6.77
2023-03-05T06:11:11.405Z,7.30
2023-03-05T06:16:17.655Z,7.23
2023-03-05T06:21:21.833Z,7.23
2023-03-05T06:26:25.149Z,6.67
2023-03-05T06:31:28.784Z,7.10
2023-03-05T06:36:31.912Z,7.23
2023-03-05T06:41:34.495Z,7.53
2023-03-05T06:46:39.302Z,6.83
2023-03-05T06:51:42.441Z,7.80
2023-03-05T06:56:46.867Z,7.50
2023-03-05T07:01:49.870Z,7.10
2023-03-05T07:06:52.266Z,7.83
2023-03-05T07:11:54.714Z,7.90
2023-03-05T07:16:57.271Z,7.73
2023-03-05T07:21:59.872Z,7.40
2023-03-05T07:27:02.882Z,5.83
2023-03-05T07:32:05.885Z,8.10
2023-03-05T07:37:08.377Z,6.80
2023-03-05T07:42:10.833Z,7.50
2023-03-05T07:47:26.570Z,8.20
2023-03-05T07:52:29.362Z,7.30
2023-03-05T07:57:32.275Z,8.13
2023-03-05T08:02:34.790Z,7.90
2023-03-05T08:07:37.366Z,7.13
2023-03-05T08:12:40.000Z,6.97
2023-03-05T08:17:42.464Z,6.33
2023-03-05T08:22:45.303Z,5.90
2023-03-05T08:27:48.761Z,6.60
2023-03-05T08:32:51.795Z,7.77
2023-03-05T08:37:54.343Z,7.17
2023-03-05T08:42:57.456Z,6.63
2023-03-05T08:47:59.957Z,6.27
2023-03-05T08:53:03.054Z,7.83
2023-03-05T08:58:05.661Z,7.87
2023-03-05T09:03:09.003Z,8.43
2023-03-05T09:08:12.185Z,7.50
2023-03-05T09:13:14.668Z,5.50
2023-03-05T09:18:17.127Z,7.40
2023-03-05T09:23:20.149Z,8.33
2023-03-05T09:28:22.760Z,6.47
2023-03-05T09:33:24.894Z,9.03
2023-03-05T09:38:27.762Z,8.37
2023-03-05T09:43:44.470Z,7.97
2023-03-05T09:48:51.278Z,6.23
2023-03-05T09:53:59.849Z,8.30
2023-03-05T09:59:11.160Z,8.50
2023-03-05T10:04:21.171Z,7.77
2023-03-05T10:09:42.106Z,8.70
2023-03-05T10:14:44.630Z,5.63
2023-03-05T10:20:23.503Z,9.17
2023-03-05T10:25:44.133Z,9.00
2023-03-05T10:31:04.987Z,6.80
2023-03-05T10:36:45.713Z,7.17
2023-03-05T10:42:08.042Z,9.63
2023-03-05T10:47:50.821Z,6.90
2023-03-05T10:53:44.647Z,6.53
2023-03-05T10:58:46.739Z,8.33
2023-03-05T11:04:03.763Z,6.60
2023-03-05T11:09:38.572Z,5.90
2023-03-05T11:15:02.909Z,8.97
2023-03-05T11:20:32.958Z,5.90
2023-03-05T11:25:49.732Z,9.23
2023-03-05T11:31:16.565Z,6.70
2023-03-05T11:36:39.134Z,10.00
2023-03-05T11:42:06.651Z,7.13
2023-03-05T11:47:26.111Z,8.20
2023-03-05T11:52:44.995Z,6.47
2023-03-05T11:58:01.444Z,9.80
2023-03-05T12:03:14.110Z,9.30
2023-03-05T12:08:27.005Z,9.10
2023-03-05T12:13:48.849Z,8.80
2023-03-05T12:19:33.102Z,9.23
2023-03-05T12:24:38.092Z,8.93
2023-03-05T12:29:52.635Z,7.33
2023-03-05T12:35:36.282Z,7.63
2023-03-05T12:40:38.492Z,5.93
2023-03-05T12:45:42.492Z,7.70
2023-03-05T12:50:48.519Z,6.43
2023-03-05T12:56:26.612Z,7.30
2023-03-05T13:01:57.515Z,6.67
2023-03-05T13:07:12.688Z,7.67
2023-03-05T13:12:14.914Z,7.37
2023-03-05T13:17:40.213Z,7.97
2023-03-05T13:22:42.901Z,8.20
2023-03-05T13:27:45.471Z,6.97
2023-03-05T13:32:52.110Z,6.73
2023-03-05T13:37:55.001Z,6.87
2023-03-05T13:43:12.143Z,5.70
2023-03-05T13:48:20.186Z,7.27
2023-03-05T13:53:28.971Z,6.50
2023-03-05T13:58:54.201Z,6.97
2023-03-05T14:04:13.371Z,7.17
2023-03-05T14:09:23.238Z,7.47
2023-03-05T14:14:28.022Z,6.53
2023-03-05T14:19:38.968Z,7.10
2023-03-05T14:24:51.234Z,7.00
2023-03-05T14:29:54.063Z,7.33
2023-03-05T14:34:59.506Z,7.70
2023-03-05T14:40:06.404Z,7.40
2023-03-05T14:45:11.777Z,7.27
2023-03-05T14:50:19.938Z,7.77
2023-03-05T14:55:25.313Z,9.47
2023-03-05T15:00:28.974Z,8.60
2023-03-05T15:05:31.822Z,6.17
2023-03-05T15:10:34.088Z,8.73
2023-03-05T15:15:36.334Z,8.13
2023-03-05T15:20:39.917Z,8.17
2023-03-05T15:25:42.370Z,7.97
2023-03-05T15:30:48.036Z,8.57
2023-03-05T15:35:50.200Z,7.73
2023-03-05T15:40:53.018Z,8.67
2023-03-05T15:45:55.227Z,7.30
2023-03-05T15:50:57.337Z,9.00
2023-03-05T15:55:59.375Z,7.07
2023-03-05T16:01:01.749Z,8.43
2023-03-05T16:06:05.651Z,8.50
2023-03-05T16:11:08.567Z,8.07
2023-03-05T16:16:11.302Z,7.43
2023-03-05T16:21:14.621Z,6.77
2023-03-05T16:26:17.046Z,6.93
2023-03-05T16:31:19.182Z,6.90
2023-03-05T16:36:25.752Z,6.77
2023-03-05T16:41:28.022Z,6.67
2023-03-05T16:46:35.154Z,6.13
2023-03-05T16:51:40.196Z,6.87
2023-03-05T16:56:42.375Z,6.70
2023-03-05T17:01:44.924Z,6.40
2023-03-05T17:06:49.299Z,6.57
2023-03-05T17:11:53.269Z,6.60
2023-03-05T17:16:55.403Z,6.57
2023-03-05T17:21:57.678Z,6.63
2023-03-05T17:27:00.832Z,7.47
2023-03-05T17:32:03.536Z,6.53
2023-03-05T17:37:06.552Z,6.60
2023-03-05T17:42:08.975Z,7.63
2023-03-05T17:47:11.687Z,8.07
2023-03-05T17:52:14.078Z,7.27
2023-03-05T17:57:16.263Z,7.57
2023-03-05T18:02:18.354Z,8.33
2023-03-05T18:07:20.390Z,8.37
2023-03-05T18:12:22.529Z,7.83
2023-03-05T18:17:24.779Z,8.13
2023-03-05T18:22:27.067Z,7.97
2023-03-05T18:27:31.227Z,8.10
2023-03-05T18:32:33.721Z,8.70
2023-03-05T18:37:38.289Z,8.63
2023-03-05T18:42:40.391Z,8.97
2023-03-05T18:47:43.923Z,7.77
2023-03-05T18:52:46.402Z,8.57
2023-03-05T18:57:49.330Z,7.33
2023-03-05T19:02:51.945Z,8.23
2023-03-05T19:07:55.617Z,9.20
2023-03-05T19:13:18.160Z,9.40
2023-03-05T19:18:21.092Z,8.53
2023-03-05T19:23:25.412Z,8.90
2023-03-05T19:28:30.142Z,9.20
2023-03-05T19:33:32.578Z,7.73
2023-03-05T19:38:34.796Z,7.90
2023-03-05T19:43:37.838Z,8.30
2023-03-05T19:48:41.200Z,8.93
2023-03-05T19:53:44.105Z,9.43
2023-03-05T19:58:48.968Z,9.87
2023-03-05T20:03:54.909Z,9.87
2023-03-05T20:08:58.024Z,9.60
2023-03-05T20:14:00.283Z,10.07
2023-03-05T20:19:05.555Z,10.37
2023-03-05T20:24:13.164Z,9.67
2023-03-05T20:29:18.111Z,11.70
2023-03-05T20:34:21.026Z,10.23
2023-03-05T20:39:23.004Z,7.60
2023-03-05T20:44:25.281Z,7.13
2023-03-05T20:49:27.541Z,7.37
2023-03-05T20:54:29.645Z,6.80
2023-03-05T20:59:31.841Z,6.30
2023-03-05T21:04:34.333Z,5.20
2023-03-05T21:09:36.524Z,6.40
2023-03-05T21:14:40.592Z,5.80
2023-03-05T21:19:42.708Z,5.33
2023-03-05T21:25:02.152Z,5.43
2023-03-05T21:30:05.479Z,5.00
2023-03-05T21:35:08.232Z,6.03
2023-03-05T21:40:14.236Z,5.20
2023-03-05T21:45:21.631Z,6.23
2023-03-05T21:50:25.415Z,6.73
2023-03-05T21:55:33.144Z,5.73
2023-03-05T22:00:35.504Z,5.40
2023-03-05T22:05:37.523Z,5.93
2023-03-05T22:10:41.431Z,6.30
2023-03-05T22:15:58.049Z,5.47
2023-03-05T22:21:01.058Z,5.50
2023-03-05T22:26:07.095Z,5.10
2023-03-05T22:31:10.436Z,4.60
2023-03-05T22:36:14.618Z,4.83
2023-03-05T22:41:19.951Z,5.40
2023-03-05T22:46:26.176Z,4.90
2023-03-05T22:51:28.297Z,5.17
2023-03-05T22:56:30.375Z,5.60
2023-03-05T23:01:32.776Z,4.97
2023-03-05T23:06:35.088Z,5.90
2023-03-05T23:11:37.553Z,5.50
2023-03-05T23:16:40.311Z,5.47
2023-03-05T23:21:42.781Z,5.47
2023-03-05T23:26:45.759Z,6.00
2023-03-05T23:31:48.170Z,5.60
2023-03-05T23:36:50.568Z,6.30
2023-03-05T23:41:53.244Z,6.57
2023-03-05T23:46:55.642Z,6.33
2023-03-05T23:51:58.144Z,7.13
2023-03-05T23:57:00.581Z,7.27
